Time;durP1;ratioP1;P1;durP2;ratioP2;P2;SDS_P1;SDS_P2;PMS_P1;PMS_P2;Temp;Humidity;BMP_temperature;BMP_pressure;BME280_temperature;BME280_humidity;BME280_pressure;Samples;Min_cycle;Max_cycle;Signal;HPM_P1;HPM_P2
2024/01/27 00:03:47;;;;;;;10.90;2.13;;;;;;;4.95;100.00;100964.48;4704830;58;1136968;-83
2024/01/27 00:08:53;;;;;;;13.33;3.37;;;;;;;4.94;100.00;100976.35;4669381;60;1138800;-78
2024/01/27 00:13:59;;;;;;;18.60;2.77;;;;;;;4.95;100.00;100980.67;4645448;61;1138867;-79
2024/01/27 00:19:04;;;;;;;9.50;2.75;;;;;;;4.94;100.00;100982.91;4696213;60;1138831;-79
2024/01/27 00:24:10;;;;;;;12.07;2.80;;;;;;;4.90;100.00;100987.43;4694123;60;1136719;-80
2024/01/27 00:29:15;;;;;;;6.57;1.50;;;;;;;4.90;100.00;100993.13;4689263;60;1138739;-84
2024/01/27 00:34:21;;;;;;;23.50;2.27;;;;;;;4.91;100.00;100994.84;4705431;60;1136877;-81
2024/01/27 00:39:27;;;;;;;13.27;2.43;;;;;;;4.92;100.00;100997.84;4782476;58;1138622;-84
2024/01/27 00:44:32;;;;;;;15.47;2.97;;;;;;;4.89;100.00;100990.13;4708100;59;1139014;-83
2024/01/27 00:49:38;;;;;;;11.87;2.50;;;;;;;4.90;100.00;100981.34;4712545;59;1139466;-82
2024/01/27 00:54:44;;;;;;;8.53;1.73;;;;;;;4.85;100.00;100991.21;4691260;60;1138937;-81
2024/01/27 00:59:49;;;;;;;19.23;2.45;;;;;;;4.86;100.00;100992.91;4689027;60;1136649;-80
2024/01/27 01:04:55;;;;;;;14.47;2.30;;;;;;;4.87;100.00;100996.77;4684641;60;1138727;-83
2024/01/27 01:10:00;;;;;;;12.33;1.73;;;;;;;4.85;100.00;100999.07;4619465;61;1138722;-79
2024/01/27 01:15:07;;;;;;;7.00;1.87;;;;;;;4.83;100.00;101001.76;4691149;60;1138796;-80
2024/01/27 01:20:13;;;;;;;28.20;4.97;;;;;;;4.84;100.00;100999.53;4688780;60;1136968;-79
2024/01/27 01:25:18;;;;;;;16.43;2.57;;;;;;;4.84;100.00;101013.09;4715135;60;1139201;-82
2024/01/27 01:30:24;;;;;;;21.60;4.07;;;;;;;4.85;100.00;101018.27;4697514;60;1138618;-81
2024/01/27 01:35:30;;;;;;;17.03;2.03;;;;;;;4.86;100.00;101023.05;4694794;60;1139845;-80
2024/01/27 01:40:35;;;;;;;18.30;2.50;;;;;;;4.84;100.00;101022.27;4780528;58;1138717;-79
2024/01/27 01:45:41;;;;;;;15.33;1.83;;;;;;;4.82;100.00;101021.02;4690310;59;1138872;-78
2024/01/27 01:50:47;;;;;;;14.73;2.47;;;;;;;4.85;100.00;101021.34;4704410;60;1138669;-80
2024/01/27 01:55:54;;;;;;;19.57;3.23;;;;;;;4.84;100.00;101021.80;4702809;61;1138748;-81
2024/01/27 02:00:59;;;;;;;19.50;2.00;;;;;;;4.81;100.00;101017.16;4669738;60;1138668;-82
2024/01/27 02:06:05;;;;;;;8.57;1.70;;;;;;;4.81;100.00;101031.57;4610248;62;1138612;-80
2024/01/27 02:11:11;;;;;;;18.02;2.08;;;;;;;4.78;100.00;101029.94;4659566;60;1136897;-83
2024/01/27 02:16:17;;;;;;;11.75;3.33;;;;;;;4.77;100.00;101020.83;4713053;60;1139057;-84
2024/01/27 02:21:23;;;;;;;8.63;1.83;;;;;;;4.78;100.00;101015.52;4687936;60;1139149;-84
2024/01/27 02:26:28;;;;;;;9.98;1.87;;;;;;;4.77;100.00;101027.37;4706364;60;1136669;-78
2024/01/27 02:31:34;;;;;;;8.83;2.23;;;;;;;4.75;100.00;101024.83;4710340;59;1136686;-79
2024/01/27 02:36:39;;;;;;;16.70;2.10;;;;;;;4.75;100.00;101034.45;4714233;59;1136390;-84
2024/01/27 02:41:45;;;;;;;15.57;2.20;;;;;;;4.70;100.00;101016.80;4725988;58;1138729;-82
2024/01/27 02:46:51;;;;;;;10.07;1.90;;;;;;;4.75;100.00;101022.66;4708760;60;1138977;-79
2024/01/27 02:51:56;;;;;;;11.23;2.30;;;;;;;4.71;100.00;101035.08;4689721;60;1138771;-79
2024/01/27 02:57:02;;;;;;;12.07;2.77;;;;;;;4.73;100.00;101033.70;4686143;60;1138621;-80
2024/01/27 03:02:09;;;;;;;16.80;2.92;;;;;;;4.73;100.00;101035.02;4637170;61;1139253;-78
2024/01/27 03:07:14;;;;;;;11.50;2.47;;;;;;;4.69;100.00;101034.75;4695027;60;1138909;-84
2024/01/27 03:12:22;;;;;;;8.78;2.45;;;;;;;4.72;100.00;101026.30;4702119;60;1138790;-80
2024/01/27 03:17:27;;;;;;;5.93;1.60;;;;;;;4.72;100.00;101031.55;4684838;60;1136852;-78
2024/01/27 03:22:33;;;;;;;16.35;3.55;;;;;;;4.71;100.00;101026.37;4704934;60;1136872;-80
2024/01/27 03:27:38;;;;;;;21.07;2.73;;;;;;;4.72;100.00;101032.00;4690001;60;1138808;-80
2024/01/27 03:32:44;;;;;;;12.00;2.13;;;;;;;4.70;100.00;101038.62;4688355;60;1138752;-83
2024/01/27 03:37:51;;;;;;;13.57;2.27;;;;;;;4.69;100.00;101039.99;4765366;59;1138638;-79
2024/01/27 03:42:56;;;;;;;20.43;3.40;;;;;;;4.71;100.00;101029.84;4732458;58;1138796;-81
2024/01/27 03:48:02;;;;;;;11.33;3.25;;;;;;;4.69;100.00;101029.05;4696478;60;1138733;-82
2024/01/27 03:53:07;;;;;;;11.60;1.70;;;;;;;4.69;100.00;101024.27;4715983;59;1139104;-82
2024/01/27 03:58:13;;;;;;;14.10;2.25;;;;;;;4.71;100.00;101032.92;4694352;60;1138981;-79
2024/01/27 04:03:19;;;;;;;5.47;2.10;;;;;;;4.69;100.00;101022.96;4691387;60;1138738;-81
2024/01/27 04:08:24;;;;;;;9.83;2.40;;;;;;;4.69;100.00;101023.81;4709189;60;1136833;-77
2024/01/27 04:13:30;;;;;;;10.27;2.13;;;;;;;4.70;100.00;101028.59;4694771;59;1136690;-81
2024/01/27 04:18:36;;;;;;;16.87;3.13;;;;;;;4.70;100.00;101035.14;4693579;59;1138684;-78
2024/01/27 04:23:41;;;;;;;15.98;2.72;;;;;;;4.71;100.00;101042.09;4706509;60;1138609;-80
2024/01/27 04:28:47;;;;;;;12.13;3.07;;;;;;;4.69;100.00;101042.16;4694483;59;1138656;-79
2024/01/27 04:33:53;;;;;;;15.10;1.70;;;;;;;4.69;100.00;101051.33;4699005;60;1138666;-80
2024/01/27 04:38:58;;;;;;;11.00;1.60;;;;;;;4.69;100.00;101038.22;4762477;58;1138658;-81
2024/01/27 04:44:04;;;;;;;10.87;2.33;;;;;;;4.71;100.00;101034.23;4706343;59;1138625;-81
2024/01/27 04:49:09;;;;;;;13.07;2.57;;;;;;;4.65;100.00;101028.80;4688613;60;1139282;-79
2024/01/27 04:54:15;;;;;;;11.00;1.97;;;;;;;4.66;100.00;101034.88;4623080;61;1138894;-77
2024/01/27 04:59:20;;;;;;;7.55;2.47;;;;;;;4.66;100.00;101027.02;4695438;60;1138814;-79
2024/01/27 05:04:26;;;;;;;13.20;2.63;;;;;;;4.67;100.00;101042.68;4664757;60;1136921;-83
2024/01/27 05:09:32;;;;;;;16.85;2.87;;;;;;;4.68;100.00;101050.08;4690794;60;1139285;-81
2024/01/27 05:14:37;;;;;;;19.97;2.57;;;;;;;4.67;100.00;101062.78;4715556;58;1138561;-82
2024/01/27 05:19:44;;;;;;;14.63;2.50;;;;;;;4.68;100.00;101045.69;4687521;59;1138732;-77
2024/01/27 05:24:50;;;;;;;8.63;2.30;;;;;;;4.65;100.00;101045.82;4673379;60;1138866;-81
2024/01/27 05:29:55;;;;;;;23.00;4.90;;;;;;;4.63;100.00;101048.11;4638650;60;1240035;-81
2024/01/27 05:35:01;;;;;;;15.03;4.47;;;;;;;4.58;100.00;101065.37;4546308;60;1138819;-80
2024/01/27 05:40:09;;;;;;;13.98;2.83;;;;;;;4.56;100.00;101072.44;4600198;59;1197508;-79
2024/01/27 05:45:14;;;;;;;28.98;4.30;;;;;;;4.51;100.00;101081.80;4690830;60;1138714;-79
2024/01/27 05:50:20;;;;;;;13.90;2.35;;;;;;;4.47;100.00;101068.89;4673105;60;1138856;-80
2024/01/27 05:55:26;;;;;;;10.87;2.00;;;;;;;4.39;100.00;101092.81;4680823;60;1138936;-82
2024/01/27 06:00:31;;;;;;;14.13;2.63;;;;;;;4.30;100.00;101104.97;4674843;59;1138803;-80
2024/01/27 06:05:37;;;;;;;21.43;5.87;;;;;;;4.21;100.00;101104.91;4701143;60;1138658;-83
2024/01/27 06:10:43;;;;;;;18.50;2.70;;;;;;;4.13;100.00;101121.83;4678530;60;1138851;-81
2024/01/27 06:15:48;;;;;;;17.43;3.33;;;;;;;4.07;100.00;101122.95;4668815;60;1242339;-79
2024/01/27 06:20:54;;;;;;;20.83;4.70;;;;;;;4.02;100.00;101131.45;4644889;60;1138704;-84
2024/01/27 06:25:59;;;;;;;11.83;3.50;;;;;;;4.01;100.00;101148.06;4672436;61;1172805;-81
2024/01/27 06:31:07;;;;;;;16.70;2.93;;;;;;;3.97;100.00;101162.20;4526598;62;1237859;-80
2024/01/27 06:36:12;;;;;;;22.27;2.63;;;;;;;3.88;100.00;101167.78;4556965;61;1233030;-82
2024/01/27 06:41:18;;;;;;;10.90;2.47;;;;;;;3.80;100.00;101189.48;4611138;62;1234430;-81
2024/01/27 06:46:24;;;;;;;29.27;3.17;;;;;;;3.72;100.00;101193.69;4593225;62;1235683;-77
2024/01/27 06:51:30;;;;;;;26.53;4.50;;;;;;;3.70;100.00;101191.59;4586819;60;1249885;-81
2024/01/27 06:56:36;;;;;;;10.30;2.57;;;;;;;3.65;100.00;101195.31;4601115;61;1248861;-81
2024/01/27 07:01:49;;;;;;;20.17;3.17;;;;;;;3.63;100.00;101187.52;4693131;60;1255721;-82
2024/01/27 07:06:54;;;;;;;;;;;;;;;3.64;100.00;101187.06;4537642;59;1254293;-79
2024/01/27 07:12:00;;;;;;;22.30;3.37;;;;;;;3.65;100.00;101190.94;4624946;62;989329;-80
2024/01/27 07:17:06;;;;;;;16.57;4.70;;;;;;;3.65;100.00;101190.94;4573049;62;1163576;-77
2024/01/27 07:22:12;;;;;;;32.53;6.07;;;;;;;3.67;100.00;101189.08;4623916;62;1251186;-84
2024/01/27 07:27:18;;;;;;;27.48;9.60;;;;;;;3.73;100.00;101190.17;4590692;62;1254372;-81
2024/01/27 07:32:25;;;;;;;15.67;3.93;;;;;;;3.77;100.00;101184.38;4647629;61;1253283;-77
2024/01/27 07:37:31;;;;;;;41.03;4.80;;;;;;;3.82;100.00;101195.03;4666801;60;1138881;-78
2024/01/27 07:42:36;;;;;;;29.83;6.67;;;;;;;3.88;100.00;101203.97;4691843;59;1139132;-76
2024/01/27 07:47:42;;;;;;;21.53;4.00;;;;;;;3.94;100.00;101229.05;4703313;61;1138905;-76
2024/01/27 07:52:47;;;;;;;20.37;3.87;;;;;;;4.02;100.00;101230.05;4693043;59;1138717;-76
2024/01/27 07:57:53;;;;;;;16.47;5.53;;;;;;;4.08;100.00;101237.67;4693125;58;1253326;-76
2024/01/27 08:02:58;;;;;;;19.83;5.57;;;;;;;4.13;100.00;101261.42;4718348;59;1170015;-76
2024/01/27 08:08:04;;;;;;;22.50;3.50;;;;;;;4.16;100.00;101262.62;4690610;59;1138822;-76
2024/01/27 08:13:11;;;;;;;16.55;4.70;;;;;;;4.17;100.00;101278.73;4641270;59;1138910;-78
2024/01/27 08:18:16;;;;;;;11.70;3.47;;;;;;;4.20;100.00;101279.06;4623469;59;1143626;-77
2024/01/27 08:23:22;;;;;;;19.77;3.90;;;;;;;4.21;100.00;101293.87;4568667;61;1138788;-76
2024/01/27 08:28:28;;;;;;;24.37;6.67;;;;;;;4.26;100.00;101297.17;4551888;61;1138812;-76
2024/01/27 08:33:33;;;;;;;16.33;3.37;;;;;;;4.29;100.00;101298.33;4697168;59;1138540;-78
2024/01/27 08:38:39;;;;;;;27.77;7.50;;;;;;;4.33;100.00;101308.23;4691551;60;1138646;-80
2024/01/27 08:43:44;;;;;;;35.08;13.20;;;;;;;4.35;100.00;101314.27;4701202;60;1139225;-82
2024/01/27 08:48:50;;;;;;;42.53;15.20;;;;;;;4.41;100.00;101328.45;4582442;61;1140805;-78
2024/01/27 08:53:56;;;;;;;17.43;6.17;;;;;;;4.43;100.00;101337.92;4570410;62;1140734;-81
2024/01/27 08:59:01;;;;;;;34.87;11.90;;;;;;;4.47;100.00;101346.06;4698712;60;1138586;-77
2024/01/27 09:04:07;;;;;;;52.10;25.17;;;;;;;4.51;100.00;101356.83;4608320;61;1140885;-81
2024/01/27 09:09:13;;;;;;;17.27;7.10;;;;;;;4.55;100.00;101382.00;4702926;60;1140970;-78
2024/01/27 09:14:18;;;;;;;22.77;7.72;;;;;;;4.58;100.00;101388.41;4679769;61;1138569;-75
2024/01/27 09:19:24;;;;;;;29.80;15.00;;;;;;;4.57;100.00;101401.59;4661930;59;1138706;-79
2024/01/27 09:24:30;;;;;;;20.60;6.45;;;;;;;4.55;100.00;101409.97;4697753;60;1140903;-78
2024/01/27 09:29:35;;;;;;;26.57;7.30;;;;;;;4.59;100.00;101439.04;4726979;59;1138762;-79
2024/01/27 09:34:41;;;;;;;23.10;7.00;;;;;;;4.59;100.00;101455.61;4677041;60;1138866;-78
2024/01/27 09:39:46;;;;;;;33.73;11.40;;;;;;;4.60;100.00;101458.62;4688568;60;1138751;-76
2024/01/27 09:44:55;;;;;;;43.50;25.23;;;;;;;4.63;100.00;101474.70;4710426;60;1140879;-80
2024/01/27 09:50:00;;;;;;;30.77;14.90;;;;;;;4.66;100.00;101483.76;4688448;61;1140931;-82
2024/01/27 09:55:08;;;;;;;21.53;5.50;;;;;;;4.72;100.00;101496.64;4691801;60;1140876;-77
2024/01/27 10:00:16;;;;;;;18.73;6.57;;;;;;;4.77;100.00;101509.09;4694731;60;1148373;-78
2024/01/27 10:05:23;;;;;;;23.70;4.85;;;;;;;4.79;100.00;101508.58;4703495;61;1138745;-82
2024/01/27 10:10:28;;;;;;;32.97;14.70;;;;;;;4.82;100.00;101501.06;4622923;60;1138822;-83
2024/01/27 10:15:34;;;;;;;31.10;14.37;;;;;;;4.91;100.00;101521.67;4635599;60;1140940;-80
2024/01/27 10:20:41;;;;;;;21.03;8.50;;;;;;;5.01;100.00;101526.13;4713469;60;1140816;-80
2024/01/27 10:25:47;;;;;;;29.47;9.70;;;;;;;5.03;100.00;101522.99;4702594;60;1138680;-78
2024/01/27 10:30:52;;;;;;;21.77;5.57;;;;;;;5.09;100.00;101535.84;4617775;60;1138567;-76
2024/01/27 10:35:59;;;;;;;16.77;6.87;;;;;;;5.12;100.00;101553.63;4699594;60;1138721;-78
2024/01/27 10:41:10;;;;;;;36.27;13.77;;;;;;;5.15;100.00;101550.90;4686479;60;1138477;-78
2024/01/27 10:46:16;;;;;;;33.00;12.78;;;;;;;5.16;100.00;101563.55;4689236;60;1141082;-81
2024/01/27 10:51:32;;;;;;;13.70;2.65;;;;;;;5.20;100.00;101560.73;4691651;60;1141209;-78
2024/01/27 10:56:40;;;;;;;29.60;9.30;;;;;;;5.29;100.00;101573.97;4700590;60;1138422;-80
2024/01/27 11:01:47;;;;;;;26.07;8.30;;;;;;;5.38;100.00;101569.66;4696697;60;1138539;-83
2024/01/27 11:06:53;;;;;;;28.07;5.50;;;;;;;5.49;100.00;101579.75;4690864;60;1138643;-76
2024/01/27 11:12:00;;;;;;;20.20;6.73;;;;;;;5.58;100.00;101601.22;4710812;60;1138959;-80
2024/01/27 11:17:06;;;;;;;25.00;5.83;;;;;;;5.65;100.00;101592.66;4704366;60;1138692;-77
2024/01/27 11:22:30;;;;;;;26.57;4.57;;;;;;;5.75;100.00;101616.76;4700529;60;1138451;-81
2024/01/27 11:27:36;;;;;;;25.23;8.37;;;;;;;5.80;100.00;101618.75;4689254;60;1138587;-76
2024/01/27 11:32:57;;;;;;;23.00;6.40;;;;;;;5.88;100.00;101638.55;4705266;60;1139094;-79
2024/01/27 11:38:03;;;;;;;22.93;8.97;;;;;;;5.98;100.00;101633.77;4687809;60;1138701;-77
2024/01/27 11:43:10;;;;;;;26.97;9.83;;;;;;;6.15;100.00;101648.38;4698417;59;1138717;-81
2024/01/27 11:48:16;;;;;;;16.33;6.37;;;;;;;6.47;100.00;101658.86;4685896;60;1138723;-86
2024/01/27 11:53:22;;;;;;;60.85;30.85;;;;;;;6.74;100.00;101668.64;4704403;59;1139037;-74
2024/01/27 11:58:27;;;;;;;37.00;14.63;;;;;;;6.98;100.00;101674.16;4712347;59;1140827;-79
2024/01/27 12:03:33;;;;;;;48.07;26.50;;;;;;;7.22;100.00;101672.20;4701905;59;1141376;-76
2024/01/27 12:08:40;;;;;;;35.50;16.03;;;;;;;7.40;100.00;101689.79;4726453;57;1140653;-78
2024/01/27 12:13:46;;;;;;;35.97;14.27;;;;;;;7.53;100.00;101698.44;4700895;60;1141087;-82
2024/01/27 12:18:55;;;;;;;25.87;10.90;;;;;;;7.71;100.00;101698.90;4696518;60;1140578;-79
2024/01/27 12:24:01;;;;;;;23.40;11.50;;;;;;;7.81;100.00;101719.92;4533318;62;1141033;-78
2024/01/27 12:29:08;;;;;;;29.30;8.97;;;;;;;7.98;100.00;101726.56;4637863;60;1140950;-81
2024/01/27 12:34:14;;;;;;;21.70;4.57;;;;;;;8.10;100.00;101732.56;4610081;61;1139011;-78
2024/01/27 12:39:19;;;;;;;17.37;7.87;;;;;;;8.25;100.00;101738.87;4670359;60;1138782;-82
2024/01/27 12:44:25;;;;;;;15.65;6.10;;;;;;;8.22;100.00;101740.83;4655606;59;1139130;-82
2024/01/27 12:49:31;;;;;;;22.00;6.37;;;;;;;8.25;100.00;101743.32;4624275;61;1138613;-81
2024/01/27 12:54:37;;;;;;;19.95;4.33;;;;;;;8.38;100.00;101756.32;4614096;61;1138604;-80
2024/01/27 12:59:42;;;;;;;17.87;6.90;;;;;;;8.54;100.00;101747.20;4647906;61;1138804;-79
2024/01/27 13:04:48;;;;;;;22.47;10.87;;;;;;;8.73;100.00;101767.74;4657388;60;1138677;-78
2024/01/27 13:09:53;;;;;;;15.70;5.20;;;;;;;8.96;100.00;101770.55;4698525;60;1141028;-78
2024/01/27 13:14:59;;;;;;;16.70;6.43;;;;;;;9.12;100.00;101782.04;4703754;60;1139594;-78
2024/01/27 13:20:06;;;;;;;19.40;7.33;;;;;;;9.31;100.00;101802.60;4693298;60;1140864;-77
2024/01/27 13:25:12;;;;;;;13.17;3.63;;;;;;;9.43;100.00;101808.56;4725173;60;1140676;-80
2024/01/27 13:30:18;;;;;;;21.23;8.10;;;;;;;9.42;100.00;101816.56;4626114;60;1140950;-80
2024/01/27 13:35:23;;;;;;;19.17;5.83;;;;;;;9.58;100.00;101829.34;4637765;61;1141203;-79
2024/01/27 13:40:29;;;;;;;19.37;6.20;;;;;;;9.57;100.00;101841.31;4549429;60;1141063;-82
2024/01/27 13:45:34;;;;;;;23.67;7.60;;;;;;;9.40;100.00;101841.72;4699359;59;1140802;-78
2024/01/27 13:50:41;;;;;;;15.95;6.10;;;;;;;9.56;100.00;101857.63;4713027;61;1150336;-78
2024/01/27 13:55:46;;;;;;;61.83;44.08;;;;;;;9.91;100.00;101859.73;4696861;59;1141006;-78
2024/01/27 14:00:52;;;;;;;12.58;4.62;;;;;;;10.03;100.00;101876.25;4697778;59;1143151;-78
2024/01/27 14:05:57;;;;;;;21.60;12.10;;;;;;;9.93;100.00;101897.48;4709344;60;1143145;-81
2024/01/27 14:11:03;;;;;;;19.10;6.67;;;;;;;9.90;100.00;101908.23;4687342;60;1142994;-75
2024/01/27 14:16:09;;;;;;;23.77;10.23;;;;;;;9.64;100.00;101908.72;4622190;61;1140896;-78
2024/01/27 14:21:14;;;;;;;18.53;9.90;;;;;;;9.15;100.00;101919.14;4660340;60;1142966;-77
2024/01/27 14:26:20;;;;;;;25.90;8.13;;;;;;;9.00;100.00;101935.26;4714002;60;1141147;-77
2024/01/27 14:31:26;;;;;;;22.03;8.87;;;;;;;8.64;100.00;101947.09;4651018;60;1138815;-78
2024/01/27 14:36:31;;;;;;;25.60;8.80;;;;;;;8.11;100.00;101956.08;4607704;61;1138853;-78
2024/01/27 14:41:38;;;;;;;20.50;5.40;;;;;;;7.70;100.00;101967.09;4660796;61;1138533;-78
2024/01/27 14:46:43;;;;;;;19.50;5.60;;;;;;;7.36;100.00;101972.91;4680294;60;1138748;-77
2024/01/27 14:51:49;;;;;;;23.37;7.30;;;;;;;7.10;100.00;101978.38;4676069;60;1139026;-78
2024/01/27 14:56:55;;;;;;;31.27;10.67;;;;;;;6.82;100.00;101990.44;4727835;60;1138853;-78
2024/01/27 15:02:01;;;;;;;39.97;11.70;;;;;;;6.61;100.00;101992.10;4700566;60;1141227;-79
2024/01/27 15:07:07;;;;;;;39.10;15.00;;;;;;;6.38;100.00;101994.29;4689367;60;1140769;-79
2024/01/27 15:12:12;;;;;;;36.40;12.23;;;;;;;6.26;100.00;102007.39;4678131;60;1141253;-80
2024/01/27 15:17:19;;;;;;;29.93;12.77;;;;;;;6.11;100.00;102014.50;4754975;60;1140850;-77
2024/01/27 15:22:25;;;;;;;41.00;21.70;;;;;;;6.03;100.00;102025.75;4679450;60;1140675;-78
2024/01/27 15:27:30;;;;;;;50.10;19.30;;;;;;;5.97;100.00;102033.37;4707955;60;1141277;-78
2024/01/27 15:32:36;;;;;;;22.43;7.50;;;;;;;5.89;100.00;102039.35;4636418;61;1140804;-77
2024/01/27 15:37:42;;;;;;;27.33;5.63;;;;;;;5.81;100.00;102058.39;4676165;60;1139025;-79
2024/01/27 15:42:47;;;;;;;33.43;10.37;;;;;;;5.76;100.00;102059.47;4687133;61;1139027;-79
2024/01/27 15:47:55;;;;;;;24.40;10.03;;;;;;;5.73;100.00;102059.11;4714061;60;1141252;-78
2024/01/27 15:53:00;;;;;;;37.10;15.75;;;;;;;5.73;100.00;102067.44;4704001;60;1140700;-81
2024/01/27 15:58:07;;;;;;;21.83;5.97;;;;;;;5.69;100.00;102072.38;4741853;60;1140870;-81
2024/01/27 16:03:12;;;;;;;72.63;36.13;;;;;;;5.62;100.00;102080.47;4712914;61;1139155;-80
2024/01/27 16:08:18;;;;;;;59.40;23.77;;;;;;;5.57;100.00;102082.38;4667693;60;1140676;-81
2024/01/27 16:13:24;;;;;;;91.00;41.20;;;;;;;5.52;100.00;102088.21;4717161;59;1140910;-81
2024/01/27 16:18:29;;;;;;;59.43;30.70;;;;;;;5.47;100.00;102106.34;4688116;58;1141003;-82
2024/01/27 16:23:35;;;;;;;35.00;16.10;;;;;;;5.46;100.00;102114.66;4706660;60;1140890;-82
2024/01/27 16:28:41;;;;;;;33.23;12.10;;;;;;;5.46;100.00;102118.59;4639728;59;1140712;-81
2024/01/27 16:33:46;;;;;;;26.27;9.93;;;;;;;5.46;100.00;102133.03;4784099;58;1140954;-79
2024/01/27 16:38:52;;;;;;;44.53;19.30;;;;;;;5.47;100.00;102140.00;4892951;59;1138646;-81
2024/01/27 16:43:57;;;;;;;25.17;10.70;;;;;;;5.43;100.00;102138.36;4699817;59;1140968;-77
2024/01/27 16:49:03;;;;;;;36.05;12.65;;;;;;;5.41;100.00;102140.62;4690955;59;1140786;-77
2024/01/27 16:54:09;;;;;;;23.90;7.20;;;;;;;5.42;100.00;102143.66;4708863;60;1140918;-82
2024/01/27 16:59:14;;;;;;;21.97;8.73;;;;;;;5.38;100.00;102147.27;4692250;60;1139022;-80
2024/01/27 17:04:20;;;;;;;31.13;12.77;;;;;;;5.32;100.00;102147.02;4698480;59;1139050;-82
2024/01/27 17:09:25;;;;;;;32.77;12.93;;;;;;;5.32;100.00;102165.84;4709239;60;1141195;-79
2024/01/27 17:14:31;;;;;;;51.03;22.40;;;;;;;5.33;100.00;102168.87;4638944;59;1140899;-78
2024/01/27 17:19:37;;;;;;;31.53;11.43;;;;;;;5.34;100.00;102172.77;4703345;59;1141088;-80
2024/01/27 17:24:42;;;;;;;35.83;13.40;;;;;;;5.34;100.00;102177.15;4713453;60;1141083;-79
2024/01/27 17:29:48;;;;;;;139.80;83.07;;;;;;;5.38;100.00;102190.56;4721277;58;1141020;-80
2024/01/27 17:34:54;;;;;;;30.03;12.50;;;;;;;5.36;100.00;102193.23;4679151;59;1142654;-77
2024/01/27 17:40:02;;;;;;;37.47;17.40;;;;;;;5.35;100.00;102204.62;4713121;60;1141620;-77
2024/01/27 17:45:08;;;;;;;69.97;28.63;;;;;;;5.34;100.00;102202.07;4717327;58;1141074;-81
2024/01/27 17:50:17;;;;;;;47.23;23.53;;;;;;;5.34;100.00;102203.39;4696632;58;1141084;-77
2024/01/27 17:55:24;;;;;;;58.70;30.52;;;;;;;5.34;100.00;102208.63;4678899;58;1140657;-78
2024/01/27 18:00:29;;;;;;;32.40;8.27;;;;;;;5.33;100.00;102214.78;4658992;60;1141077;-78
2024/01/27 18:05:35;;;;;;;24.37;8.27;;;;;;;5.29;100.00;102222.73;4650432;59;1138773;-81
2024/01/27 18:10:40;;;;;;;42.37;23.23;;;;;;;5.26;100.00;102228.06;4678437;60;1139154;-79
2024/01/27 18:15:46;;;;;;;28.30;12.43;;;;;;;5.26;100.00;102229.37;4706469;60;1140823;-78
2024/01/27 18:20:52;;;;;;;41.18;18.85;;;;;;;5.27;100.00;102240.27;4707142;58;1141028;-80
2024/01/27 18:25:58;;;;;;;38.80;18.45;;;;;;;5.31;100.00;102238.43;4726246;59;1140950;-78
2024/01/27 18:31:04;;;;;;;28.12;12.82;;;;;;;5.31;100.00;102239.74;4750969;59;1140778;-82
2024/01/27 18:36:09;;;;;;;72.10;38.00;;;;;;;5.27;100.00;102239.41;4748560;58;1140815;-77
2024/01/27 18:41:15;;;;;;;37.30;17.03;;;;;;;5.30;100.00;102242.81;4745230;58;1140793;-78
2024/01/27 18:46:21;;;;;;;37.33;14.38;;;;;;;5.30;100.00;102250.69;4743701;58;1140817;-82
2024/01/27 18:51:26;;;;;;;29.33;10.33;;;;;;;5.29;100.00;102250.27;4771536;59;1141149;-82
2024/01/27 18:56:32;;;;;;;30.23;11.10;;;;;;;5.27;100.00;102261.26;4750922;59;1140776;-79
2024/01/27 19:01:38;;;;;;;29.60;15.23;;;;;;;5.31;100.00;102259.42;4747826;59;1142922;-81
2024/01/27 19:06:44;;;;;;;56.40;28.50;;;;;;;5.33;100.00;102263.31;4759382;59;1140766;-81
2024/01/27 19:11:50;;;;;;;26.33;7.60;;;;;;;5.34;100.00;102266.34;4757041;59;1140555;-80
2024/01/27 19:16:57;;;;;;;79.97;42.07;;;;;;;5.33;100.00;102269.42;4726229;59;1139043;-83
2024/01/27 19:22:02;;;;;;;25.60;7.83;;;;;;;5.33;100.00;102278.61;4752554;58;1141067;-81
2024/01/27 19:27:08;;;;;;;20.62;5.87;;;;;;;5.32;100.00;102287.37;4757794;59;1138741;-78
2024/01/27 19:32:13;;;;;;;31.80;13.20;;;;;;;5.33;100.00;102302.66;4730457;58;1139204;-80
2024/01/27 19:37:19;;;;;;;24.60;10.32;;;;;;;5.33;100.00;102302.66;4698017;59;1140990;-81
2024/01/27 19:42:25;;;;;;;39.07;17.03;;;;;;;5.41;100.00;102316.42;4721780;60;1142931;-81
2024/01/27 19:47:31;;;;;;;29.60;14.40;;;;;;;5.42;100.00;102314.20;4690173;60;1140717;-80
2024/01/27 19:52:37;;;;;;;31.03;11.73;;;;;;;5.41;100.00;102318.59;4671256;60;1140863;-79
2024/01/27 19:57:43;;;;;;;28.33;9.97;;;;;;;5.42;100.00;102328.64;4670851;60;1142977;-80
2024/01/27 20:02:49;;;;;;;45.97;18.27;;;;;;;5.43;100.00;102333.84;4675472;61;1138683;-82
2024/01/27 20:07:56;;;;;;;31.30;12.98;;;;;;;5.43;100.00;102340.41;4706927;60;1142803;-79
2024/01/27 20:13:01;;;;;;;39.10;13.40;;;;;;;5.42;100.00;102352.25;4548551;62;1141331;-79
2024/01/27 20:18:08;;;;;;;45.30;25.33;;;;;;;5.42;100.00;102350.94;4467697;62;1140823;-80
2024/01/27 20:23:17;;;;;;;73.07;53.07;;;;;;;5.41;100.00;102350.08;4475363;62;1143056;-82
2024/01/27 20:28:24;;;;;;;30.97;10.90;;;;;;;5.42;100.00;102357.50;4477930;60;1142965;-76
2024/01/27 20:33:30;;;;;;;34.30;10.87;;;;;;;5.44;100.00;102368.38;4732337;57;1141051;-81
2024/01/27 20:38:37;;;;;;;33.07;7.30;;;;;;;5.36;100.00;102360.27;4695028;59;1141016;-83
2024/01/27 20:43:45;;;;;;;39.00;13.70;;;;;;;5.40;100.00;102382.91;4717593;57;1138649;-78
2024/01/27 20:48:50;;;;;;;25.37;6.83;;;;;;;5.41;100.00;102390.75;4643259;60;1142886;-79
2024/01/27 20:53:57;;;;;;;33.27;11.67;;;;;;;5.44;100.00;102390.67;4634169;60;1140649;-76
2024/01/27 20:59:02;;;;;;;27.73;11.88;;;;;;;5.41;100.00;102382.87;4692372;60;1143180;-83
2024/01/27 21:04:10;;;;;;;41.75;15.90;;;;;;;5.44;100.00;102389.81;4709963;58;1140958;-82
2024/01/27 21:09:16;;;;;;;173.50;95.57;;;;;;;5.43;100.00;102397.27;4674674;60;1141044;-77
2024/01/27 21:14:21;;;;;;;42.63;17.80;;;;;;;5.43;100.00;102402.08;4672488;60;1145733;-79
2024/01/27 21:19:27;;;;;;;39.48;10.58;;;;;;;5.46;100.00;102408.56;4692191;60;1143013;-81
2024/01/27 21:24:32;;;;;;;40.63;9.30;;;;;;;5.46;100.00;102403.31;4677062;60;1140663;-83
2024/01/27 21:29:38;;;;;;;48.33;22.63;;;;;;;5.43;100.00;102403.38;4731240;59;1138538;-77
2024/01/27 21:34:44;;;;;;;37.90;15.87;;;;;;;5.39;100.00;102413.54;4698097;60;1140958;-80
2024/01/27 21:39:50;;;;;;;27.50;8.73;;;;;;;5.37;100.00;102417.96;4673811;61;1143088;-80
2024/01/27 21:44:56;;;;;;;28.83;8.10;;;;;;;5.35;100.00;102416.30;4681900;60;1140804;-80
2024/01/27 21:50:02;;;;;;;37.80;8.33;;;;;;;5.35;100.00;102428.94;4706732;60;1141224;-80
2024/01/27 21:55:08;;;;;;;32.30;6.80;;;;;;;5.36;100.00;102430.67;4722035;60;1140891;-80
2024/01/27 22:00:14;;;;;;;25.82;7.85;;;;;;;5.36;100.00;102440.30;4681093;59;1138675;-80
2024/01/27 22:05:24;;;;;;;44.20;9.53;;;;;;;5.35;100.00;102436.81;4696727;60;1138848;-81
2024/01/27 22:10:30;;;;;;;43.23;10.07;;;;;;;5.35;100.00;102439.92;4672654;60;1138709;-80
2024/01/27 22:15:38;;;;;;;29.80;6.17;;;;;;;5.30;100.00;102434.33;4631100;61;1140922;-81
2024/01/27 22:20:43;;;;;;;33.03;7.43;;;;;;;5.30;100.00;102437.40;4642016;61;1138660;-80
2024/01/27 22:25:48;;;;;;;26.37;7.40;;;;;;;5.30;100.00;102442.64;4671937;61;1140789;-80
2024/01/27 22:30:54;;;;;;;24.73;5.70;;;;;;;5.32;100.00;102444.78;4618322;60;1140849;-80
2024/01/27 22:36:00;;;;;;;23.03;4.27;;;;;;;5.33;100.00;102450.45;4595142;62;1141131;-81
2024/01/27 22:41:06;;;;;;;26.55;5.35;;;;;;;5.34;100.00;102456.56;4587175;62;1140891;-80
2024/01/27 22:46:11;;;;;;;35.73;7.80;;;;;;;5.35;100.00;102474.03;4633163;61;1141131;-81
2024/01/27 22:51:17;;;;;;;33.00;6.85;;;;;;;5.36;100.00;102472.65;4687897;58;1139116;-81